Terminal Aerodrome Forecast
Issued by NWS Binghamton, NY

Home | Current Version | Previous Version | Text Only | Print | Product List | Glossary On
Versions: 1 2 3 4 5 6 7 8 9 10 11 12 13 14 15 16 17 18 19 20 21 22
000
FTUS41 KBGM 070859 AAA
TAFBGM
TAF AMD
KBGM 070859Z 0709/0806 16007KT P6SM -SHRA OVC018
      TEMPO 0710/0713 5SM -SHRA BR OVC009
     FM071500 21008KT P6SM SCT020 BKN050
     FM072200 22006KT P6SM SCT050 BKN150=

USA.gov is the U.S. government's official web portal to all federal, state and local government web resources and services.